Terminal Aerodrome Forecast
Issued by NWS

Home | Current Version | Previous Version | Text Only | Print | Product List | Glossary On
Versions: 1 2 3 4 5 6 7 8 9 10 11 12 13 14 15 16 17 18 19 20 21 22
000
FTUS41 KBGM 152300
TAFELM
TAF
KELM 152322Z 1600/1624 VRB02KT P6SM SCT050 OVC100
     FM160400 VRB02KT P6SM -SHRA OVC040
     FM160800 VRB02KT 5SM -SHRA BR OVC025
     FM161400 32007KT P6SM BKN050
     FM162200 34006KT P6SM SCT050=

USA.gov is the U.S. government's official web portal to all federal, state and local government web resources and services.